sensor_id;sensor_type;location;lat;lon;timestamp;P1;durP1;ratioP1;P2;durP2;ratioP2
26042;SDS011;13818;52.156;5.382;2023-07-20T00:00:13;3.20;;;1.52;;
26042;SDS011;13818;52.156;5.382;2023-07-20T00:02:42;2.60;;;1.70;;
26042;SDS011;13818;52.156;5.382;2023-07-20T00:05:09;1.98;;;1.30;;
26042;SDS011;13818;52.156;5.382;2023-07-20T00:07:36;1.90;;;1.45;;
26042;SDS011;13818;52.156;5.382;2023-07-20T00:10:03;1.67;;;1.30;;
26042;SDS011;13818;52.156;5.382;2023-07-20T00:12:31;2.75;;;1.60;;
26042;SDS011;13818;52.156;5.382;2023-07-20T00:14:58;3.53;;;1.50;;
26042;SDS011;13818;52.156;5.382;2023-07-20T00:17:26;3.08;;;1.15;;
26042;SDS011;13818;52.156;5.382;2023-07-20T00:19:55;1.88;;;1.17;;
26042;SDS011;13818;52.156;5.382;2023-07-20T00:22:24;2.75;;;1.30;;
26042;SDS011;13818;52.156;5.382;2023-07-20T00:24:51;1.55;;;1.02;;
26042;SDS011;13818;52.156;5.382;2023-07-20T00:27:24;2.92;;;1.15;;
26042;SDS011;13818;52.156;5.382;2023-07-20T00:29:51;2.53;;;1.20;;
26042;SDS011;13818;52.156;5.382;2023-07-20T00:32:19;2.33;;;0.93;;
26042;SDS011;13818;52.156;5.382;2023-07-20T00:34:49;1.17;;;0.90;;
26042;SDS011;13818;52.156;5.382;2023-07-20T00:37:17;2.95;;;0.98;;
26042;SDS011;13818;52.156;5.382;2023-07-20T00:39:44;1.77;;;0.73;;
26042;SDS011;13818;52.156;5.382;2023-07-20T00:42:11;2.03;;;0.98;;
26042;SDS011;13818;52.156;5.382;2023-07-20T00:44:43;1.77;;;0.82;;
26042;SDS011;13818;52.156;5.382;2023-07-20T00:47:10;1.30;;;1.00;;
26042;SDS011;13818;52.156;5.382;2023-07-20T00:49:37;1.25;;;0.85;;
26042;SDS011;13818;52.156;5.382;2023-07-20T00:54:39;0.90;;;0.57;;
26042;SDS011;13818;52.156;5.382;2023-07-20T00:57:07;2.05;;;0.95;;
26042;SDS011;13818;52.156;5.382;2023-07-20T00:59:39;1.63;;;0.85;;
26042;SDS011;13818;52.156;5.382;2023-07-20T01:02:06;1.92;;;0.70;;
26042;SDS011;13818;52.156;5.382;2023-07-20T01:04:33;1.60;;;0.90;;
26042;SDS011;13818;52.156;5.382;2023-07-20T01:07:03;1.17;;;0.80;;
26042;SDS011;13818;52.156;5.382;2023-07-20T01:09:42;1.42;;;0.85;;
26042;SDS011;13818;52.156;5.382;2023-07-20T01:12:18;0.75;;;0.55;;
26042;SDS011;13818;52.156;5.382;2023-07-20T01:14:51;1.85;;;0.90;;
26042;SDS011;13818;52.156;5.382;2023-07-20T01:17:19;1.20;;;0.70;;
26042;SDS011;13818;52.156;5.382;2023-07-20T01:19:46;2.03;;;0.90;;
26042;SDS011;13818;52.156;5.382;2023-07-20T01:22:21;1.20;;;0.70;;
26042;SDS011;13818;52.156;5.382;2023-07-20T01:25:23;1.52;;;1.10;;
26042;SDS011;13818;52.156;5.382;2023-07-20T01:31:22;1.27;;;0.90;;
26042;SDS011;13818;52.156;5.382;2023-07-20T01:33:52;1.45;;;0.82;;
26042;SDS011;13818;52.156;5.382;2023-07-20T01:36:23;1.27;;;0.80;;
26042;SDS011;13818;52.156;5.382;2023-07-20T01:38:55;1.40;;;0.90;;
26042;SDS011;13818;52.156;5.382;2023-07-20T01:41:32;1.90;;;0.85;;
26042;SDS011;13818;52.156;5.382;2023-07-20T01:44:03;2.42;;;1.02;;
26042;SDS011;13818;52.156;5.382;2023-07-20T01:46:32;1.55;;;0.93;;
26042;SDS011;13818;52.156;5.382;2023-07-20T01:49:00;1.55;;;0.88;;
26042;SDS011;13818;52.156;5.382;2023-07-20T01:51:30;1.70;;;1.00;;
26042;SDS011;13818;52.156;5.382;2023-07-20T01:54:00;2.17;;;1.08;;
26042;SDS011;13818;52.156;5.382;2023-07-20T01:56:27;2.72;;;1.45;;
26042;SDS011;13818;52.156;5.382;2023-07-20T01:58:58;2.65;;;1.30;;
26042;SDS011;13818;52.156;5.382;2023-07-20T02:01:26;2.33;;;1.17;;
26042;SDS011;13818;52.156;5.382;2023-07-20T02:03:57;1.60;;;1.30;;
26042;SDS011;13818;52.156;5.382;2023-07-20T02:06:24;2.45;;;1.20;;
26042;SDS011;13818;52.156;5.382;2023-07-20T02:08:51;5.15;;;1.42;;
26042;SDS011;13818;52.156;5.382;2023-07-20T02:11:30;1.50;;;1.20;;
26042;SDS011;13818;52.156;5.382;2023-07-20T02:13:59;1.85;;;1.05;;
26042;SDS011;13818;52.156;5.382;2023-07-20T02:16:28;3.88;;;1.38;;
26042;SDS011;13818;52.156;5.382;2023-07-20T02:18:59;2.35;;;1.05;;
26042;SDS011;13818;52.156;5.382;2023-07-20T02:21:26;1.63;;;0.95;;
26042;SDS011;13818;52.156;5.382;2023-07-20T02:23:57;2.10;;;1.00;;
26042;SDS011;13818;52.156;5.382;2023-07-20T02:26:24;1.50;;;1.00;;
26042;SDS011;13818;52.156;5.382;2023-07-20T02:28:53;2.60;;;1.00;;
26042;SDS011;13818;52.156;5.382;2023-07-20T02:31:20;1.20;;;0.80;;
26042;SDS011;13818;52.156;5.382;2023-07-20T02:33:50;2.22;;;1.00;;
26042;SDS011;13818;52.156;5.382;2023-07-20T02:36:19;1.50;;;0.85;;
26042;SDS011;13818;52.156;5.382;2023-07-20T02:38:46;1.88;;;0.98;;
26042;SDS011;13818;52.156;5.382;2023-07-20T02:41:13;1.75;;;1.00;;
26042;SDS011;13818;52.156;5.382;2023-07-20T02:43:41;1.50;;;1.00;;
26042;SDS011;13818;52.156;5.382;2023-07-20T02:46:08;1.33;;;0.90;;
26042;SDS011;13818;52.156;5.382;2023-07-20T02:48:35;1.40;;;1.10;;
26042;SDS011;13818;52.156;5.382;2023-07-20T02:51:02;1.13;;;0.65;;
26042;SDS011;13818;52.156;5.382;2023-07-20T02:53:31;2.67;;;1.00;;
26042;SDS011;13818;52.156;5.382;2023-07-20T02:56:01;1.50;;;0.95;;
26042;SDS011;13818;52.156;5.382;2023-07-20T02:58:28;0.90;;;0.70;;
26042;SDS011;13818;52.156;5.382;2023-07-20T03:00:55;1.85;;;1.00;;
26042;SDS011;13818;52.156;5.382;2023-07-20T03:03:22;1.55;;;1.00;;
26042;SDS011;13818;52.156;5.382;2023-07-20T03:05:50;1.35;;;0.88;;
26042;SDS011;13818;52.156;5.382;2023-07-20T03:08:19;1.00;;;0.65;;
26042;SDS011;13818;52.156;5.382;2023-07-20T03:10:51;1.77;;;1.13;;
26042;SDS011;13818;52.156;5.382;2023-07-20T03:13:18;1.52;;;1.10;;
26042;SDS011;13818;52.156;5.382;2023-07-20T03:15:48;1.75;;;1.10;;
26042;SDS011;13818;52.156;5.382;2023-07-20T03:18:15;1.95;;;1.02;;
26042;SDS011;13818;52.156;5.382;2023-07-20T03:20:44;1.33;;;0.85;;
26042;SDS011;13818;52.156;5.382;2023-07-20T03:23:13;2.03;;;1.10;;
26042;SDS011;13818;52.156;5.382;2023-07-20T03:25:43;1.90;;;1.10;;
26042;SDS011;13818;52.156;5.382;2023-07-20T03:28:13;1.55;;;1.00;;
26042;SDS011;13818;52.156;5.382;2023-07-20T03:30:40;1.35;;;0.90;;
26042;SDS011;13818;52.156;5.382;2023-07-20T03:33:07;1.10;;;0.80;;
26042;SDS011;13818;52.156;5.382;2023-07-20T03:35:34;2.67;;;0.93;;
26042;SDS011;13818;52.156;5.382;2023-07-20T03:38:08;2.20;;;1.25;;
26042;SDS011;13818;52.156;5.382;2023-07-20T03:40:38;2.13;;;1.35;;
26042;SDS011;13818;52.156;5.382;2023-07-20T03:43:05;1.42;;;1.00;;
26042;SDS011;13818;52.156;5.382;2023-07-20T03:45:34;1.92;;;1.20;;
26042;SDS011;13818;52.156;5.382;2023-07-20T03:48:01;1.70;;;1.13;;
26042;SDS011;13818;52.156;5.382;2023-07-20T03:50:28;1.90;;;1.23;;
26042;SDS011;13818;52.156;5.382;2023-07-20T03:52:55;2.10;;;1.13;;
26042;SDS011;13818;52.156;5.382;2023-07-20T03:55:25;2.80;;;1.15;;
26042;SDS011;13818;52.156;5.382;2023-07-20T03:57:52;2.45;;;1.25;;
26042;SDS011;13818;52.156;5.382;2023-07-20T04:00:21;2.42;;;1.30;;
26042;SDS011;13818;52.156;5.382;2023-07-20T04:02:51;1.20;;;0.93;;
26042;SDS011;13818;52.156;5.382;2023-07-20T04:05:19;1.65;;;1.02;;
26042;SDS011;13818;52.156;5.382;2023-07-20T04:07:46;3.58;;;1.17;;
26042;SDS011;13818;52.156;5.382;2023-07-20T04:10:13;2.20;;;1.30;;
26042;SDS011;13818;52.156;5.382;2023-07-20T04:12:40;2.10;;;1.25;;
26042;SDS011;13818;52.156;5.382;2023-07-20T04:15:10;1.80;;;1.08;;
26042;SDS011;13818;52.156;5.382;2023-07-20T04:17:39;3.63;;;1.30;;
26042;SDS011;13818;52.156;5.382;2023-07-20T04:20:08;3.45;;;1.42;;
26042;SDS011;13818;52.156;5.382;2023-07-20T04:22:35;2.75;;;1.20;;
26042;SDS011;13818;52.156;5.382;2023-07-20T04:25:02;2.22;;;1.35;;
26042;SDS011;13818;52.156;5.382;2023-07-20T04:27:31;3.58;;;1.75;;
26042;SDS011;13818;52.156;5.382;2023-07-20T04:30:06;1.90;;;1.35;;
26042;SDS011;13818;52.156;5.382;2023-07-20T04:32:34;2.25;;;1.58;;
26042;SDS011;13818;52.156;5.382;2023-07-20T04:35:05;2.17;;;1.50;;
26042;SDS011;13818;52.156;5.382;2023-07-20T04:37:35;2.25;;;1.13;;
26042;SDS011;13818;52.156;5.382;2023-07-20T04:40:02;3.55;;;1.20;;
26042;SDS011;13818;52.156;5.382;2023-07-20T04:42:33;2.30;;;1.52;;
26042;SDS011;13818;52.156;5.382;2023-07-20T04:45:01;3.97;;;1.35;;
26042;SDS011;13818;52.156;5.382;2023-07-20T04:47:29;2.42;;;1.65;;
26042;SDS011;13818;52.156;5.382;2023-07-20T04:49:58;3.08;;;1.42;;
26042;SDS011;13818;52.156;5.382;2023-07-20T04:52:25;2.08;;;1.40;;
26042;SDS011;13818;52.156;5.382;2023-07-20T04:54:53;2.58;;;1.30;;
26042;SDS011;13818;52.156;5.382;2023-07-20T04:57:24;3.17;;;1.00;;
26042;SDS011;13818;52.156;5.382;2023-07-20T04:59:53;2.20;;;0.95;;
26042;SDS011;13818;52.156;5.382;2023-07-20T05:02:22;3.13;;;1.20;;
26042;SDS011;13818;52.156;5.382;2023-07-20T05:04:59;2.20;;;1.40;;
26042;SDS011;13818;52.156;5.382;2023-07-20T05:07:34;1.65;;;1.20;;
26042;SDS011;13818;52.156;5.382;2023-07-20T05:10:02;2.20;;;1.45;;
26042;SDS011;13818;52.156;5.382;2023-07-20T05:12:32;2.13;;;1.30;;
26042;SDS011;13818;52.156;5.382;2023-07-20T05:14:59;2.55;;;1.30;;
26042;SDS011;13818;52.156;5.382;2023-07-20T05:17:26;3.20;;;1.17;;
26042;SDS011;13818;52.156;5.382;2023-07-20T05:19:55;3.38;;;1.48;;
26042;SDS011;13818;52.156;5.382;2023-07-20T05:22:22;3.33;;;0.90;;
26042;SDS011;13818;52.156;5.382;2023-07-20T05:24:49;2.20;;;1.25;;
26042;SDS011;13818;52.156;5.382;2023-07-20T05:27:18;3.03;;;1.30;;
26042;SDS011;13818;52.156;5.382;2023-07-20T05:29:45;1.83;;;1.20;;
26042;SDS011;13818;52.156;5.382;2023-07-20T05:32:13;2.25;;;1.33;;
26042;SDS011;13818;52.156;5.382;2023-07-20T05:34:40;2.88;;;1.02;;
26042;SDS011;13818;52.156;5.382;2023-07-20T05:37:13;4.03;;;1.10;;
26042;SDS011;13818;52.156;5.382;2023-07-20T05:39:40;2.85;;;0.95;;
26042;SDS011;13818;52.156;5.382;2023-07-20T05:42:07;2.45;;;1.58;;
26042;SDS011;13818;52.156;5.382;2023-07-20T05:44:41;4.30;;;1.17;;
26042;SDS011;13818;52.156;5.382;2023-07-20T05:47:08;3.15;;;0.95;;
26042;SDS011;13818;52.156;5.382;2023-07-20T05:49:46;1.60;;;1.40;;
26042;SDS011;13818;52.156;5.382;2023-07-20T05:52:17;3.65;;;1.23;;
26042;SDS011;13818;52.156;5.382;2023-07-20T05:54:44;2.38;;;1.20;;
26042;SDS011;13818;52.156;5.382;2023-07-20T05:57:11;1.70;;;1.10;;
26042;SDS011;13818;52.156;5.382;2023-07-20T05:59:38;2.08;;;1.10;;
26042;SDS011;13818;52.156;5.382;2023-07-20T06:02:09;3.20;;;1.92;;
26042;SDS011;13818;52.156;5.382;2023-07-20T06:04:39;2.20;;;1.20;;
26042;SDS011;13818;52.156;5.382;2023-07-20T06:07:06;3.10;;;1.40;;
26042;SDS011;13818;52.156;5.382;2023-07-20T06:09:49;2.45;;;1.27;;
26042;SDS011;13818;52.156;5.382;2023-07-20T06:12:16;2.38;;;1.02;;
26042;SDS011;13818;52.156;5.382;2023-07-20T06:14:47;2.85;;;0.90;;
26042;SDS011;13818;52.156;5.382;2023-07-20T06:17:14;3.20;;;0.90;;
26042;SDS011;13818;52.156;5.382;2023-07-20T06:19:42;1.67;;;0.90;;
26042;SDS011;13818;52.156;5.382;2023-07-20T06:22:12;3.13;;;0.85;;
26042;SDS011;13818;52.156;5.382;2023-07-20T06:24:39;2.00;;;1.10;;
26042;SDS011;13818;52.156;5.382;2023-07-20T06:27:06;2.70;;;0.80;;
26042;SDS011;13818;52.156;5.382;2023-07-20T06:29:33;1.35;;;0.75;;
26042;SDS011;13818;52.156;5.382;2023-07-20T06:32:04;1.23;;;0.70;;
26042;SDS011;13818;52.156;5.382;2023-07-20T06:34:34;1.10;;;0.70;;
26042;SDS011;13818;52.156;5.382;2023-07-20T06:37:03;0.88;;;0.65;;
26042;SDS011;13818;52.156;5.382;2023-07-20T06:39:37;1.25;;;0.85;;
26042;SDS011;13818;52.156;5.382;2023-07-20T06:42:04;0.68;;;0.60;;
26042;SDS011;13818;52.156;5.382;2023-07-20T06:44:32;0.90;;;0.57;;
26042;SDS011;13818;52.156;5.382;2023-07-20T06:46:59;1.63;;;0.30;;
26042;SDS011;13818;52.156;5.382;2023-07-20T06:49:28;0.80;;;0.50;;
26042;SDS011;13818;52.156;5.382;2023-07-20T06:52:03;2.17;;;0.80;;
26042;SDS011;13818;52.156;5.382;2023-07-20T06:54:32;1.35;;;0.60;;
26042;SDS011;13818;52.156;5.382;2023-07-20T06:57:04;3.35;;;0.73;;
26042;SDS011;13818;52.156;5.382;2023-07-20T06:59:32;4.43;;;0.80;;
26042;SDS011;13818;52.156;5.382;2023-07-20T07:02:04;1.10;;;0.70;;
26042;SDS011;13818;52.156;5.382;2023-07-20T07:07:05;1.17;;;0.70;;
26042;SDS011;13818;52.156;5.382;2023-07-20T07:09:33;1.90;;;0.55;;
26042;SDS011;13818;52.156;5.382;2023-07-20T07:12:14;3.53;;;0.70;;
26042;SDS011;13818;52.156;5.382;2023-07-20T07:14:45;0.80;;;0.60;;
26042;SDS011;13818;52.156;5.382;2023-07-20T07:17:13;1.35;;;0.70;;
26042;SDS011;13818;52.156;5.382;2023-07-20T07:19:45;2.28;;;0.90;;
26042;SDS011;13818;52.156;5.382;2023-07-20T07:22:12;1.40;;;0.50;;
26042;SDS011;13818;52.156;5.382;2023-07-20T07:24:41;1.27;;;0.43;;
26042;SDS011;13818;52.156;5.382;2023-07-20T07:27:13;0.80;;;0.55;;
26042;SDS011;13818;52.156;5.382;2023-07-20T07:29:41;0.30;;;0.30;;
26042;SDS011;13818;52.156;5.382;2023-07-20T07:32:09;1.77;;;0.40;;
26042;SDS011;13818;52.156;5.382;2023-07-20T07:34:40;0.75;;;0.43;;
26042;SDS011;13818;52.156;5.382;2023-07-20T07:37:09;1.10;;;0.50;;
26042;SDS011;13818;52.156;5.382;2023-07-20T07:39:36;0.88;;;0.40;;
26042;SDS011;13818;52.156;5.382;2023-07-20T07:42:06;0.50;;;0.40;;
26042;SDS011;13818;52.156;5.382;2023-07-20T07:44:33;1.33;;;0.32;;
26042;SDS011;13818;52.156;5.382;2023-07-20T07:47:00;1.55;;;0.45;;
26042;SDS011;13818;52.156;5.382;2023-07-20T07:49:30;1.65;;;0.30;;
26042;SDS011;13818;52.156;5.382;2023-07-20T07:52:00;0.98;;;0.47;;
26042;SDS011;13818;52.156;5.382;2023-07-20T07:54:30;1.65;;;0.40;;
26042;SDS011;13818;52.156;5.382;2023-07-20T07:56:57;0.55;;;0.40;;
26042;SDS011;13818;52.156;5.382;2023-07-20T07:59:24;1.27;;;0.40;;
26042;SDS011;13818;52.156;5.382;2023-07-20T08:01:52;0.70;;;0.35;;
26042;SDS011;13818;52.156;5.382;2023-07-20T08:04:23;1.05;;;0.32;;
26042;SDS011;13818;52.156;5.382;2023-07-20T08:06:50;0.60;;;0.50;;
26042;SDS011;13818;52.156;5.382;2023-07-20T08:09:17;0.52;;;0.38;;
26042;SDS011;13818;52.156;5.382;2023-07-20T08:11:46;0.68;;;0.40;;
26042;SDS011;13818;52.156;5.382;2023-07-20T08:14:16;1.48;;;0.70;;
26042;SDS011;13818;52.156;5.382;2023-07-20T08:16:47;1.65;;;0.60;;
26042;SDS011;13818;52.156;5.382;2023-07-20T08:19:20;2.10;;;0.55;;
26042;SDS011;13818;52.156;5.382;2023-07-20T08:21:48;0.73;;;0.30;;
26042;SDS011;13818;52.156;5.382;2023-07-20T08:24:23;2.45;;;0.47;;
26042;SDS011;13818;52.156;5.382;2023-07-20T08:26:53;0.85;;;0.40;;
26042;SDS011;13818;52.156;5.382;2023-07-20T08:29:23;1.75;;;0.52;;
26042;SDS011;13818;52.156;5.382;2023-07-20T08:31:57;0.55;;;0.30;;
26042;SDS011;13818;52.156;5.382;2023-07-20T08:34:24;1.63;;;0.45;;
26042;SDS011;13818;52.156;5.382;2023-07-20T08:36:54;1.35;;;0.35;;
26042;SDS011;13818;52.156;5.382;2023-07-20T08:39:23;0.77;;;0.30;;
26042;SDS011;13818;52.156;5.382;2023-07-20T08:41:50;0.85;;;0.60;;
26042;SDS011;13818;52.156;5.382;2023-07-20T08:44:18;1.27;;;0.40;;
26042;SDS011;13818;52.156;5.382;2023-07-20T08:46:49;0.60;;;0.30;;
26042;SDS011;13818;52.156;5.382;2023-07-20T08:49:17;0.93;;;0.30;;
26042;SDS011;13818;52.156;5.382;2023-07-20T08:51:49;0.32;;;0.20;;
26042;SDS011;13818;52.156;5.382;2023-07-20T08:54:21;0.40;;;0.32;;
26042;SDS011;13818;52.156;5.382;2023-07-20T08:56:48;0.75;;;0.40;;
26042;SDS011;13818;52.156;5.382;2023-07-20T08:59:23;0.43;;;0.30;;
26042;SDS011;13818;52.156;5.382;2023-07-20T09:01:55;0.22;;;0.20;;
26042;SDS011;13818;52.156;5.382;2023-07-20T09:04:24;1.75;;;1.10;;
26042;SDS011;13818;52.156;5.382;2023-07-20T09:06:55;1.80;;;0.98;;
26042;SDS011;13818;52.156;5.382;2023-07-20T09:09:23;0.85;;;0.32;;
26042;SDS011;13818;52.156;5.382;2023-07-20T09:11:54;1.30;;;0.47;;
26042;SDS011;13818;52.156;5.382;2023-07-20T09:14:25;0.60;;;0.30;;
26042;SDS011;13818;52.156;5.382;2023-07-20T09:16:53;2.00;;;0.60;;
26042;SDS011;13818;52.156;5.382;2023-07-20T09:19:26;0.20;;;0.20;;
26042;SDS011;13818;52.156;5.382;2023-07-20T09:21:53;1.50;;;0.30;;
26042;SDS011;13818;52.156;5.382;2023-07-20T09:24:28;1.10;;;0.50;;
26042;SDS011;13818;52.156;5.382;2023-07-20T09:26:58;0.43;;;0.32;;
26042;SDS011;13818;52.156;5.382;2023-07-20T09:29:30;2.17;;;0.50;;
26042;SDS011;13818;52.156;5.382;2023-07-20T09:32:03;0.70;;;0.30;;
26042;SDS011;13818;52.156;5.382;2023-07-20T09:34:40;1.02;;;0.32;;
26042;SDS011;13818;52.156;5.382;2023-07-20T09:37:12;1.83;;;0.32;;
26042;SDS011;13818;52.156;5.382;2023-07-20T09:39:43;1.58;;;0.40;;
26042;SDS011;13818;52.156;5.382;2023-07-20T09:42:13;1.25;;;0.43;;
26042;SDS011;13818;52.156;5.382;2023-07-20T09:44:42;3.38;;;0.30;;
26042;SDS011;13818;52.156;5.382;2023-07-20T09:47:13;1.25;;;0.30;;
26042;SDS011;13818;52.156;5.382;2023-07-20T09:49:57;2.47;;;0.30;;
26042;SDS011;13818;52.156;5.382;2023-07-20T09:52:29;0.85;;;0.22;;
26042;SDS011;13818;52.156;5.382;2023-07-20T09:54:56;0.25;;;0.13;;
26042;SDS011;13818;52.156;5.382;2023-07-20T09:57:24;1.02;;;0.35;;
26042;SDS011;13818;52.156;5.382;2023-07-20T09:59:58;0.20;;;0.13;;
26042;SDS011;13818;52.156;5.382;2023-07-20T10:02:26;0.35;;;0.25;;
26042;SDS011;13818;52.156;5.382;2023-07-20T10:04:57;0.10;;;0.10;;
26042;SDS011;13818;52.156;5.382;2023-07-20T10:07:30;0.80;;;0.40;;
26042;SDS011;13818;52.156;5.382;2023-07-20T10:09:59;0.32;;;0.22;;
26042;SDS011;13818;52.156;5.382;2023-07-20T10:12:30;0.55;;;0.22;;
26042;SDS011;13818;52.156;5.382;2023-07-20T10:15:08;1.05;;;0.35;;
26042;SDS011;13818;52.156;5.382;2023-07-20T10:17:39;0.57;;;0.35;;
26042;SDS011;13818;52.156;5.382;2023-07-20T10:20:16;0.30;;;0.30;;
26042;SDS011;13818;52.156;5.382;2023-07-20T10:22:47;0.60;;;0.40;;
26042;SDS011;13818;52.156;5.382;2023-07-20T10:25:20;0.63;;;0.30;;
26042;SDS011;13818;52.156;5.382;2023-07-20T10:27:51;1.35;;;0.43;;
26042;SDS011;13818;52.156;5.382;2023-07-20T10:30:20;0.30;;;0.20;;
26042;SDS011;13818;52.156;5.382;2023-07-20T10:32:48;0.20;;;0.20;;
26042;SDS011;13818;52.156;5.382;2023-07-20T10:35:17;0.63;;;0.30;;
26042;SDS011;13818;52.156;5.382;2023-07-20T10:42:58;3.72;;;0.50;;
26042;SDS011;13818;52.156;5.382;2023-07-20T10:45:39;0.80;;;0.30;;
26042;SDS011;13818;52.156;5.382;2023-07-20T10:48:15;4.38;;;0.50;;
26042;SDS011;13818;52.156;5.382;2023-07-20T10:50:44;1.63;;;0.30;;
26042;SDS011;13818;52.156;5.382;2023-07-20T10:53:13;2.25;;;0.20;;
26042;SDS011;13818;52.156;5.382;2023-07-20T10:55:45;0.20;;;0.20;;
26042;SDS011;13818;52.156;5.382;2023-07-20T10:58:17;0.50;;;0.20;;
26042;SDS011;13818;52.156;5.382;2023-07-20T11:01:05;0.60;;;0.40;;
26042;SDS011;13818;52.156;5.382;2023-07-20T11:06:29;1.02;;;0.20;;
26042;SDS011;13818;52.156;5.382;2023-07-20T11:09:05;0.90;;;0.20;;
26042;SDS011;13818;52.156;5.382;2023-07-20T11:11:36;0.70;;;0.38;;
26042;SDS011;13818;52.156;5.382;2023-07-20T11:14:04;0.88;;;0.30;;
26042;SDS011;13818;52.156;5.382;2023-07-20T11:16:38;0.32;;;0.25;;
26042;SDS011;13818;52.156;5.382;2023-07-20T11:19:13;1.50;;;0.85;;
26042;SDS011;13818;52.156;5.382;2023-07-20T11:21:42;0.40;;;0.25;;
26042;SDS011;13818;52.156;5.382;2023-07-20T11:24:13;1.13;;;0.20;;
26042;SDS011;13818;52.156;5.382;2023-07-20T11:26:43;0.63;;;0.20;;
26042;SDS011;13818;52.156;5.382;2023-07-20T11:29:11;0.30;;;0.20;;
26042;SDS011;13818;52.156;5.382;2023-07-20T11:34:11;0.10;;;0.10;;
26042;SDS011;13818;52.156;5.382;2023-07-20T11:36:45;1.30;;;0.50;;
26042;SDS011;13818;52.156;5.382;2023-07-20T11:39:24;0.52;;;0.28;;
26042;SDS011;13818;52.156;5.382;2023-07-20T11:41:54;1.33;;;0.40;;
26042;SDS011;13818;52.156;5.382;2023-07-20T11:44:26;0.80;;;0.40;;
26042;SDS011;13818;52.156;5.382;2023-07-20T11:47:01;0.40;;;0.30;;
26042;SDS011;13818;52.156;5.382;2023-07-20T11:49:38;0.45;;;0.30;;
26042;SDS011;13818;52.156;5.382;2023-07-20T11:52:07;0.30;;;0.20;;
26042;SDS011;13818;52.156;5.382;2023-07-20T11:54:39;0.40;;;0.32;;
26042;SDS011;13818;52.156;5.382;2023-07-20T11:57:15;0.38;;;0.30;;
26042;SDS011;13818;52.156;5.382;2023-07-20T11:59:55;0.32;;;0.20;;
26042;SDS011;13818;52.156;5.382;2023-07-20T12:02:27;0.43;;;0.20;;
26042;SDS011;13818;52.156;5.382;2023-07-20T12:04:57;0.45;;;0.30;;
26042;SDS011;13818;52.156;5.382;2023-07-20T12:07:35;0.55;;;0.30;;
26042;SDS011;13818;52.156;5.382;2023-07-20T12:10:05;0.65;;;0.30;;
26042;SDS011;13818;52.156;5.382;2023-07-20T12:12:34;0.85;;;0.60;;
26042;SDS011;13818;52.156;5.382;2023-07-20T12:15:15;0.47;;;0.28;;
26042;SDS011;13818;52.156;5.382;2023-07-20T12:17:48;1.10;;;0.40;;
26042;SDS011;13818;52.156;5.382;2023-07-20T12:20:25;1.60;;;0.60;;
26042;SDS011;13818;52.156;5.382;2023-07-20T12:22:58;0.90;;;0.47;;
26042;SDS011;13818;52.156;5.382;2023-07-20T12:25:37;1.05;;;0.52;;
26042;SDS011;13818;52.156;5.382;2023-07-20T12:28:06;0.40;;;0.30;;
26042;SDS011;13818;52.156;5.382;2023-07-20T12:30:36;2.55;;;0.50;;
26042;SDS011;13818;52.156;5.382;2023-07-20T12:33:05;0.60;;;0.40;;
26042;SDS011;13818;52.156;5.382;2023-07-20T12:35:33;2.05;;;0.50;;
26042;SDS011;13818;52.156;5.382;2023-07-20T12:38:02;0.88;;;0.40;;
26042;SDS011;13818;52.156;5.382;2023-07-20T12:40:39;0.60;;;0.40;;
26042;SDS011;13818;52.156;5.382;2023-07-20T12:43:10;0.85;;;0.50;;
26042;SDS011;13818;52.156;5.382;2023-07-20T12:45:41;0.55;;;0.40;;
26042;SDS011;13818;52.156;5.382;2023-07-20T12:48:13;0.82;;;0.50;;
26042;SDS011;13818;52.156;5.382;2023-07-20T12:50:42;0.70;;;0.43;;
26042;SDS011;13818;52.156;5.382;2023-07-20T12:53:14;0.80;;;0.40;;
26042;SDS011;13818;52.156;5.382;2023-07-20T12:55:44;0.30;;;0.30;;
26042;SDS011;13818;52.156;5.382;2023-07-20T12:58:14;0.57;;;0.40;;
26042;SDS011;13818;52.156;5.382;2023-07-20T13:00:44;0.75;;;0.40;;
26042;SDS011;13818;52.156;5.382;2023-07-20T13:03:15;0.30;;;0.30;;
26042;SDS011;13818;52.156;5.382;2023-07-20T13:05:44;0.32;;;0.30;;
26042;SDS011;13818;52.156;5.382;2023-07-20T13:08:18;0.68;;;0.40;;
26042;SDS011;13818;52.156;5.382;2023-07-20T13:10:45;1.25;;;0.65;;
26042;SDS011;13818;52.156;5.382;2023-07-20T13:13:15;0.75;;;0.43;;
26042;SDS011;13818;52.156;5.382;2023-07-20T13:15:43;1.13;;;0.70;;
26042;SDS011;13818;52.156;5.382;2023-07-20T13:18:13;0.40;;;0.30;;
26042;SDS011;13818;52.156;5.382;2023-07-20T13:20:45;1.25;;;0.50;;
26042;SDS011;13818;52.156;5.382;2023-07-20T13:23:12;1.58;;;0.60;;
26042;SDS011;13818;52.156;5.382;2023-07-20T13:25:46;1.20;;;0.50;;
26042;SDS011;13818;52.156;5.382;2023-07-20T13:28:13;1.88;;;0.70;;
26042;SDS011;13818;52.156;5.382;2023-07-20T13:30:43;0.70;;;0.50;;
26042;SDS011;13818;52.156;5.382;2023-07-20T13:33:11;2.85;;;1.00;;
26042;SDS011;13818;52.156;5.382;2023-07-20T13:35:41;1.20;;;0.52;;
26042;SDS011;13818;52.156;5.382;2023-07-20T13:38:10;2.78;;;0.45;;
26042;SDS011;13818;52.156;5.382;2023-07-20T13:40:37;2.03;;;0.52;;
26042;SDS011;13818;52.156;5.382;2023-07-20T13:43:04;1.73;;;0.60;;
26042;SDS011;13818;52.156;5.382;2023-07-20T13:45:32;0.63;;;0.30;;
26042;SDS011;13818;52.156;5.382;2023-07-20T13:48:01;2.22;;;0.40;;
26042;SDS011;13818;52.156;5.382;2023-07-20T13:50:37;1.58;;;0.60;;
26042;SDS011;13818;52.156;5.382;2023-07-20T13:53:04;0.95;;;0.60;;
26042;SDS011;13818;52.156;5.382;2023-07-20T13:55:33;2.88;;;0.70;;
26042;SDS011;13818;52.156;5.382;2023-07-20T13:58:02;1.35;;;1.10;;
26042;SDS011;13818;52.156;5.382;2023-07-20T14:00:31;2.95;;;0.65;;
26042;SDS011;13818;52.156;5.382;2023-07-20T14:02:58;0.75;;;0.50;;
26042;SDS011;13818;52.156;5.382;2023-07-20T14:05:27;0.95;;;0.50;;
26042;SDS011;13818;52.156;5.382;2023-07-20T14:07:55;0.25;;;0.25;;
26042;SDS011;13818;52.156;5.382;2023-07-20T14:10:22;3.03;;;0.68;;
26042;SDS011;13818;52.156;5.382;2023-07-20T14:13:02;0.75;;;0.50;;
26042;SDS011;13818;52.156;5.382;2023-07-20T14:15:30;1.33;;;0.50;;
26042;SDS011;13818;52.156;5.382;2023-07-20T14:18:00;0.65;;;0.40;;
26042;SDS011;13818;52.156;5.382;2023-07-20T14:20:36;0.63;;;0.40;;
26042;SDS011;13818;52.156;5.382;2023-07-20T14:23:06;1.73;;;0.60;;
26042;SDS011;13818;52.156;5.382;2023-07-20T14:25:37;1.27;;;0.40;;
26042;SDS011;13818;52.156;5.382;2023-07-20T14:28:05;0.95;;;0.35;;
26042;SDS011;13818;52.156;5.382;2023-07-20T14:30:33;0.38;;;0.35;;
26042;SDS011;13818;52.156;5.382;2023-07-20T14:33:05;0.90;;;0.50;;
26042;SDS011;13818;52.156;5.382;2023-07-20T14:35:33;0.80;;;0.40;;
26042;SDS011;13818;52.156;5.382;2023-07-20T14:38:03;1.08;;;0.60;;
26042;SDS011;13818;52.156;5.382;2023-07-20T14:40:33;0.73;;;0.50;;
26042;SDS011;13818;52.156;5.382;2023-07-20T14:43:03;0.75;;;0.50;;
26042;SDS011;13818;52.156;5.382;2023-07-20T14:45:36;1.40;;;0.60;;
26042;SDS011;13818;52.156;5.382;2023-07-20T14:48:03;0.80;;;0.60;;
26042;SDS011;13818;52.156;5.382;2023-07-20T14:50:34;0.68;;;0.50;;
26042;SDS011;13818;52.156;5.382;2023-07-20T14:53:04;0.82;;;0.43;;
26042;SDS011;13818;52.156;5.382;2023-07-20T14:55:35;0.80;;;0.55;;
26042;SDS011;13818;52.156;5.382;2023-07-20T14:58:04;1.77;;;0.68;;
26042;SDS011;13818;52.156;5.382;2023-07-20T15:00:35;0.77;;;0.40;;
26042;SDS011;13818;52.156;5.382;2023-07-20T15:03:09;0.60;;;0.40;;
26042;SDS011;13818;52.156;5.382;2023-07-20T15:05:40;0.85;;;0.65;;
26042;SDS011;13818;52.156;5.382;2023-07-20T15:08:07;0.93;;;0.50;;
26042;SDS011;13818;52.156;5.382;2023-07-20T15:10:39;1.58;;;0.50;;
26042;SDS011;13818;52.156;5.382;2023-07-20T15:13:08;0.93;;;0.40;;
26042;SDS011;13818;52.156;5.382;2023-07-20T15:15:39;1.00;;;0.17;;
26042;SDS011;13818;52.156;5.382;2023-07-20T15:18:14;1.67;;;0.50;;
26042;SDS011;13818;52.156;5.382;2023-07-20T15:20:44;0.98;;;0.60;;
26042;SDS011;13818;52.156;5.382;2023-07-20T15:23:12;0.85;;;0.50;;